createdAt,value
2023-04-17T00:00:31.236Z,7.20
2023-04-17T00:02:58.265Z,6.18
2023-04-17T00:05:26.941Z,8.70
2023-04-17T00:07:57.382Z,8.73
2023-04-17T00:10:24.496Z,8.25
2023-04-17T00:12:51.416Z,6.55
2023-04-17T00:15:18.335Z,7.35
2023-04-17T00:17:45.395Z,6.57
2023-04-17T00:20:12.514Z,6.80
2023-04-17T00:22:39.821Z,8.63
2023-04-17T00:25:07.579Z,6.97
2023-04-17T00:27:34.691Z,7.03
2023-04-17T00:30:01.696Z,7.53
2023-04-17T00:32:28.722Z,8.40
2023-04-17T00:34:55.961Z,8.13
2023-04-17T00:37:22.933Z,9.27
2023-04-17T00:39:49.876Z,9.75
2023-04-17T00:42:16.797Z,6.65
2023-04-17T00:44:43.781Z,8.43
2023-04-17T00:47:11.287Z,9.27
2023-04-17T00:49:38.351Z,10.32
2023-04-17T00:52:06.037Z,7.13
2023-04-17T00:54:33.599Z,7.35
2023-04-17T00:57:01.605Z,10.23
2023-04-17T00:59:29.341Z,9.95
2023-04-17T01:01:56.438Z,7.72
2023-04-17T01:04:24.154Z,7.15
2023-04-17T01:06:53.425Z,7.72
2023-04-17T01:09:20.368Z,7.90
2023-04-17T01:11:47.278Z,8.85
2023-04-17T01:14:15.448Z,8.27
2023-04-17T01:16:44.735Z,7.93
2023-04-17T01:19:16.029Z,7.45
2023-04-17T01:21:42.992Z,8.30
2023-04-17T01:24:10.958Z,8.23
2023-04-17T01:26:38.905Z,7.10
2023-04-17T01:29:05.815Z,6.82
2023-04-17T01:31:32.979Z,9.55
2023-04-17T01:34:01.290Z,7.88
2023-04-17T01:36:29.287Z,9.30
2023-04-17T01:38:56.287Z,8.20
2023-04-17T01:41:23.411Z,8.27
2023-04-17T01:43:50.430Z,7.05
2023-04-17T01:46:17.549Z,7.45
2023-04-17T01:48:44.691Z,7.13
2023-04-17T01:51:11.835Z,8.02
2023-04-17T01:53:39.963Z,7.60
2023-04-17T01:56:07.830Z,7.88
2023-04-17T01:58:34.800Z,9.30
2023-04-17T02:01:01.805Z,9.73
2023-04-17T02:03:29.021Z,9.25
2023-04-17T02:05:56.082Z,11.30
2023-04-17T02:08:23.311Z,12.45
2023-04-17T02:10:50.449Z,9.68
2023-04-17T02:13:17.367Z,10.85
2023-04-17T02:15:44.583Z,9.50
2023-04-17T02:18:12.130Z,11.75
2023-04-17T02:20:39.794Z,13.57
2023-04-17T02:23:07.078Z,12.75
2023-04-17T02:25:34.398Z,12.95
2023-04-17T02:28:01.391Z,13.43
2023-04-17T02:30:28.957Z,12.82
2023-04-17T02:32:56.421Z,12.45
2023-04-17T02:35:28.199Z,10.95
2023-04-17T02:37:55.450Z,13.38
2023-04-17T02:40:22.505Z,9.88
2023-04-17T02:42:49.552Z,13.05
2023-04-17T02:45:16.558Z,10.00
2023-04-17T02:47:43.525Z,8.45
2023-04-17T02:50:11.236Z,8.95
2023-04-17T02:52:38.254Z,12.65
2023-04-17T02:55:06.999Z,9.38
2023-04-17T02:57:33.987Z,9.00
2023-04-17T03:00:01.868Z,11.15
2023-04-17T03:02:30.748Z,10.90
2023-04-17T03:04:57.825Z,11.85
2023-04-17T03:07:27.588Z,12.93
2023-04-17T03:09:57.692Z,12.68
2023-04-17T03:12:24.915Z,12.63
2023-04-17T03:14:52.528Z,13.77
2023-04-17T03:17:20.975Z,15.07
2023-04-17T03:19:48.070Z,12.07
2023-04-17T03:22:15.134Z,12.70
2023-04-17T03:24:42.172Z,13.38
2023-04-17T03:27:09.267Z,12.43
2023-04-17T03:29:36.519Z,11.20
2023-04-17T03:32:03.913Z,11.90
2023-04-17T03:34:31.620Z,11.90
2023-04-17T03:36:59.200Z,14.10
2023-04-17T03:39:26.856Z,11.52
2023-04-17T03:41:53.932Z,13.10
2023-04-17T03:44:21.216Z,14.95
2023-04-17T03:46:48.159Z,14.15
2023-04-17T03:49:15.089Z,12.18
2023-04-17T03:51:43.082Z,11.95
2023-04-17T03:54:10.268Z,14.25
2023-04-17T03:56:37.446Z,16.55
2023-04-17T03:59:07.183Z,12.68
2023-04-17T04:01:34.307Z,13.57
2023-04-17T04:04:01.956Z,13.43
2023-04-17T04:06:30.120Z,16.02
2023-04-17T04:08:57.346Z,17.85
2023-04-17T04:11:24.278Z,15.27
2023-04-17T04:13:51.441Z,18.75
2023-04-17T04:16:18.488Z,14.13
2023-04-17T04:18:45.582Z,18.70
2023-04-17T04:21:12.822Z,16.40
2023-04-17T04:23:41.545Z,17.92
2023-04-17T04:26:08.609Z,15.80
2023-04-17T04:28:35.630Z,21.85
2023-04-17T04:31:02.919Z,18.25
2023-04-17T04:33:30.339Z,31.80
2023-04-17T04:36:01.278Z,19.25
2023-04-17T04:38:33.063Z,14.38
2023-04-17T04:41:06.547Z,23.58
2023-04-17T04:43:34.088Z,19.35
2023-04-17T04:46:01.053Z,16.52
2023-04-17T04:48:29.142Z,18.67
2023-04-17T04:50:56.484Z,15.43
2023-04-17T04:53:23.540Z,14.93
2023-04-17T04:55:50.508Z,15.15
2023-04-17T04:58:17.418Z,14.93
2023-04-17T05:00:44.752Z,18.08
2023-04-17T05:03:12.940Z,15.95
2023-04-17T05:05:41.207Z,14.10
2023-04-17T05:08:08.182Z,16.42
2023-04-17T05:10:35.143Z,16.20
2023-04-17T05:13:02.092Z,13.20
2023-04-17T05:15:29.303Z,20.85
2023-04-17T05:17:56.408Z,14.40
2023-04-17T05:20:23.670Z,17.30
2023-04-17T05:22:50.866Z,15.45
2023-04-17T05:25:19.777Z,16.73
2023-04-17T05:27:46.794Z,18.52
2023-04-17T05:30:14.714Z,16.83
2023-04-17T05:32:41.911Z,14.88
2023-04-17T05:35:09.366Z,15.95
2023-04-17T05:37:39.189Z,13.15
2023-04-17T05:40:07.269Z,16.35
2023-04-17T05:42:34.948Z,13.25
2023-04-17T05:45:02.071Z,15.13
2023-04-17T05:47:29.211Z,17.15
2023-04-17T05:49:58.286Z,14.68
2023-04-17T05:52:25.803Z,15.27
2023-04-17T05:54:52.783Z,14.95
2023-04-17T05:57:20.130Z,20.17
2023-04-17T05:59:49.453Z,21.58
2023-04-17T06:02:17.506Z,15.77
2023-04-17T06:07:34.917Z,19.42
2023-04-17T06:10:02.698Z,17.73
2023-04-17T06:15:27.597Z,18.60
2023-04-17T06:17:54.654Z,15.07
2023-04-17T06:20:21.680Z,17.80
2023-04-17T06:22:49.703Z,20.35
2023-04-17T06:25:16.752Z,18.40
2023-04-17T06:27:43.778Z,16.73
2023-04-17T06:30:13.508Z,16.30
2023-04-17T06:32:43.932Z,19.80
2023-04-17T06:35:11.670Z,19.95
2023-04-17T06:37:38.771Z,19.38
2023-04-17T06:40:06.666Z,21.00
2023-04-17T06:42:35.651Z,17.67
2023-04-17T06:45:04.869Z,19.20
2023-04-17T06:47:31.954Z,18.65
2023-04-17T06:50:00.066Z,16.10
2023-04-17T06:52:27.098Z,17.58
2023-04-17T06:54:55.238Z,17.52
2023-04-17T06:57:22.725Z,15.93
2023-04-17T07:02:26.600Z,15.68
2023-04-17T07:04:55.242Z,15.85
2023-04-17T07:07:23.235Z,16.40
2023-04-17T07:09:50.700Z,16.48
2023-04-17T07:12:17.671Z,14.15
2023-04-17T07:14:44.839Z,12.52
2023-04-17T07:17:11.920Z,15.48
2023-04-17T07:19:39.149Z,13.57
2023-04-17T07:22:06.065Z,12.60
2023-04-17T07:24:35.225Z,13.05
2023-04-17T07:27:04.259Z,12.35
2023-04-17T07:29:31.416Z,13.10
2023-04-17T07:31:58.861Z,11.93
2023-04-17T07:34:25.952Z,11.57
2023-04-17T07:36:53.510Z,11.80
2023-04-17T07:39:20.601Z,11.02
2023-04-17T07:41:48.216Z,13.30
2023-04-17T07:44:15.184Z,10.85
2023-04-17T07:46:42.392Z,10.65
2023-04-17T07:49:11.998Z,11.18
2023-04-17T07:51:41.360Z,11.23
2023-04-17T07:54:08.709Z,12.07
2023-04-17T07:56:36.898Z,11.80
2023-04-17T07:59:05.043Z,11.23
2023-04-17T08:04:13.778Z,10.38
2023-04-17T08:47:43.188Z,9.88
2023-04-17T08:50:15.840Z,10.55
2023-04-17T08:52:48.055Z,9.93
2023-04-17T08:55:20.494Z,10.90
2023-04-17T08:57:54.431Z,10.18
2023-04-17T09:00:25.984Z,10.73
2023-04-17T09:02:55.185Z,9.82
2023-04-17T09:05:23.939Z,10.77
2023-04-17T09:08:05.545Z,10.20
2023-04-17T09:10:44.863Z,9.70
2023-04-17T09:13:16.230Z,9.02
2023-04-17T09:16:05.788Z,9.40
2023-04-17T09:18:33.954Z,11.10
2023-04-17T09:21:02.078Z,9.55
2023-04-17T09:23:31.252Z,10.68
2023-04-17T09:26:13.714Z,10.70
2023-04-17T09:28:41.463Z,11.45
2023-04-17T09:31:20.575Z,10.95
2023-04-17T09:34:00.439Z,9.32
2023-04-17T09:36:30.778Z,12.05
2023-04-17T09:39:02.364Z,10.82
2023-04-17T09:41:31.887Z,10.20
2023-04-17T09:44:02.183Z,10.45
2023-04-17T09:46:46.185Z,10.88
2023-04-17T09:49:33.944Z,11.02
2023-04-17T09:52:01.144Z,9.73
2023-04-17T09:54:31.573Z,10.20
2023-04-17T09:56:59.358Z,11.00
2023-04-17T09:59:27.004Z,12.27
2023-04-17T10:01:57.185Z,10.50
2023-04-17T10:04:24.757Z,12.65
2023-04-17T10:06:51.779Z,11.02
2023-04-17T10:09:18.660Z,11.10
2023-04-17T10:11:49.749Z,11.15
2023-04-17T10:14:34.329Z,10.55
2023-04-17T10:17:25.464Z,11.35
2023-04-17T10:19:52.762Z,11.00
2023-04-17T10:22:19.657Z,11.23
2023-04-17T10:25:14.870Z,11.52
2023-04-17T10:27:41.785Z,10.65
2023-04-17T10:30:12.826Z,10.88
2023-04-17T10:32:42.604Z,9.88
2023-04-17T10:35:19.738Z,9.35
2023-04-17T10:37:50.356Z,10.48
2023-04-17T10:40:21.507Z,8.95
2023-04-17T10:43:13.186Z,9.68
2023-04-17T10:45:58.561Z,8.70
2023-04-17T10:48:49.752Z,9.13
2023-04-17T10:51:29.160Z,8.90
2023-04-17T10:54:00.828Z,8.52
2023-04-17T10:56:30.918Z,8.40
2023-04-17T10:59:09.002Z,8.20
2023-04-17T11:01:48.264Z,9.40
2023-04-17T11:04:31.067Z,8.05
2023-04-17T11:06:58.611Z,7.90
2023-04-17T11:09:28.264Z,9.55
2023-04-17T11:11:58.930Z,7.60
2023-04-17T11:14:26.873Z,8.38
2023-04-17T11:16:53.894Z,8.35
2023-04-17T11:19:23.190Z,7.45
2023-04-17T11:21:52.175Z,8.73
2023-04-17T11:24:26.880Z,7.68
2023-04-17T11:26:54.619Z,8.15
2023-04-17T11:29:23.119Z,8.60
2023-04-17T11:31:52.449Z,7.65
2023-04-17T11:34:19.919Z,7.88
2023-04-17T11:36:51.275Z,9.13
2023-04-17T11:39:20.081Z,8.15
2023-04-17T11:41:47.323Z,9.60
2023-04-17T11:44:15.747Z,8.50
2023-04-17T11:46:42.802Z,8.70
2023-04-17T11:49:10.443Z,8.70
2023-04-17T11:51:40.623Z,9.07
2023-04-17T11:54:07.678Z,9.43
2023-04-17T11:56:34.769Z,10.45
2023-04-17T11:59:05.920Z,9.13
2023-04-17T12:01:33.311Z,9.23
2023-04-17T12:04:00.499Z,11.55
2023-04-17T12:06:38.411Z,9.50
2023-04-17T12:09:07.125Z,9.13
2023-04-17T12:11:34.549Z,9.30
2023-04-17T12:14:02.430Z,10.57
2023-04-17T12:16:29.804Z,9.38
2023-04-17T12:18:57.402Z,9.55
2023-04-17T12:21:24.670Z,9.55
2023-04-17T12:23:52.255Z,9.23
2023-04-17T12:26:19.407Z,10.65
2023-04-17T12:28:46.446Z,10.05
2023-04-17T12:31:13.677Z,8.35
2023-04-17T12:33:40.632Z,8.35
2023-04-17T12:36:08.136Z,8.73
2023-04-17T12:38:36.106Z,9.57
2023-04-17T12:41:03.261Z,8.65
2023-04-17T12:43:32.606Z,9.05
2023-04-17T12:45:59.675Z,9.05
2023-04-17T12:48:26.721Z,8.25
2023-04-17T12:50:54.575Z,9.77
2023-04-17T12:53:21.807Z,9.02
2023-04-17T12:55:48.800Z,8.50
2023-04-17T12:58:16.417Z,10.05
2023-04-17T13:00:46.273Z,10.07
2023-04-17T13:03:13.682Z,9.77
2023-04-17T13:05:40.911Z,9.77
2023-04-17T13:08:12.519Z,9.60
2023-04-17T13:10:39.491Z,8.77
2023-04-17T13:13:06.463Z,10.00
2023-04-17T13:15:33.474Z,9.68
2023-04-17T13:18:00.884Z,9.48
2023-04-17T13:20:28.325Z,8.98
2023-04-17T13:22:56.861Z,8.88
2023-04-17T13:25:25.305Z,10.85
2023-04-17T13:27:52.532Z,11.10
2023-04-17T13:30:19.416Z,10.18
2023-04-17T13:32:46.387Z,9.27
2023-04-17T13:35:13.617Z,10.38
2023-04-17T13:37:41.455Z,9.65
2023-04-17T13:40:12.261Z,10.50
2023-04-17T13:42:39.293Z,9.88
2023-04-17T13:45:07.474Z,9.43
2023-04-17T13:47:34.600Z,10.75
2023-04-17T13:50:02.001Z,10.70
2023-04-17T13:52:29.204Z,9.05
2023-04-17T13:54:56.253Z,9.27
2023-04-17T13:57:23.260Z,9.00
2023-04-17T13:59:50.280Z,8.10
2023-04-17T14:02:17.385Z,9.88
2023-04-17T14:04:44.496Z,8.07
2023-04-17T14:07:12.975Z,10.00
2023-04-17T14:09:40.154Z,9.73
2023-04-17T14:12:07.186Z,8.77
2023-04-17T14:14:34.211Z,7.78
2023-04-17T14:17:01.405Z,8.38
2023-04-17T14:19:28.459Z,7.55
2023-04-17T14:21:55.564Z,8.40
2023-04-17T14:24:22.488Z,8.50
2023-04-17T14:26:49.421Z,7.10
2023-04-17T14:29:16.327Z,7.13
2023-04-17T14:31:43.403Z,7.43
2023-04-17T14:34:10.527Z,6.45
2023-04-17T14:36:37.642Z,8.55
2023-04-17T14:39:04.622Z,7.20
2023-04-17T14:41:34.195Z,7.43
2023-04-17T14:44:01.434Z,7.65
2023-04-17T14:46:28.522Z,7.20
2023-04-17T14:48:56.575Z,5.95
2023-04-17T14:51:27.267Z,7.05
2023-04-17T14:53:54.533Z,7.40
2023-04-17T14:56:21.907Z,7.90
2023-04-17T14:58:49.235Z,6.88
2023-04-17T15:01:16.493Z,8.00
2023-04-17T15:03:47.500Z,9.88
2023-04-17T15:06:15.867Z,8.57
2023-04-17T15:08:42.867Z,8.73
2023-04-17T15:11:10.007Z,8.90
2023-04-17T15:13:37.016Z,8.48
2023-04-17T15:16:04.243Z,6.68
2023-04-17T15:18:31.252Z,7.95
2023-04-17T15:20:58.515Z,7.45
2023-04-17T15:23:29.747Z,7.72
2023-04-17T15:25:58.024Z,7.25
2023-04-17T15:28:25.543Z,8.07
2023-04-17T15:30:52.651Z,7.75
2023-04-17T15:33:20.008Z,8.80
2023-04-17T15:35:47.224Z,7.88
2023-04-17T15:38:14.188Z,7.57
2023-04-17T15:40:41.094Z,8.60
2023-04-17T15:43:08.239Z,7.85
2023-04-17T15:45:35.239Z,7.15
2023-04-17T15:48:02.293Z,8.18
2023-04-17T15:50:29.505Z,7.65
2023-04-17T15:52:56.583Z,9.02
2023-04-17T15:55:23.716Z,7.63
2023-04-17T15:57:50.769Z,7.55
2023-04-17T16:00:18.218Z,8.30
2023-04-17T16:02:48.031Z,8.63
2023-04-17T16:05:16.053Z,8.05
2023-04-17T16:07:43.156Z,9.45
2023-04-17T16:10:13.839Z,7.85
2023-04-17T16:12:43.273Z,10.63
2023-04-17T16:15:12.193Z,9.48
2023-04-17T16:17:39.186Z,8.73
2023-04-17T16:20:06.936Z,9.02
2023-04-17T16:22:33.864Z,9.48
2023-04-17T16:25:01.946Z,8.82
2023-04-17T16:27:29.911Z,9.63
2023-04-17T16:29:56.855Z,8.93
2023-04-17T16:32:25.111Z,8.80
2023-04-17T16:34:52.731Z,8.98
2023-04-17T16:37:19.783Z,8.45
2023-04-17T16:39:47.339Z,9.00
2023-04-17T16:42:14.653Z,8.88
2023-04-17T16:44:41.766Z,8.27
2023-04-17T16:47:14.161Z,9.10
2023-04-17T16:49:42.225Z,7.97
2023-04-17T16:52:09.783Z,8.38
2023-04-17T16:54:36.694Z,8.93
2023-04-17T16:57:04.035Z,9.35
2023-04-17T16:59:30.982Z,7.65
2023-04-17T17:01:59.136Z,7.70
2023-04-17T17:04:27.968Z,7.70
2023-04-17T17:06:55.007Z,7.40
2023-04-17T17:09:21.988Z,9.00
2023-04-17T17:11:48.953Z,8.00
2023-04-17T17:14:16.275Z,8.18
2023-04-17T17:16:43.401Z,8.38
2023-04-17T17:19:10.909Z,8.30
2023-04-17T17:21:38.025Z,8.32
2023-04-17T17:24:05.436Z,7.85
2023-04-17T17:26:32.608Z,7.13
2023-04-17T17:28:59.645Z,8.07
2023-04-17T17:31:26.868Z,6.57
2023-04-17T17:33:55.486Z,5.68
2023-04-17T17:36:22.404Z,6.75
2023-04-17T17:38:56.172Z,6.85
2023-04-17T17:41:23.996Z,6.57
2023-04-17T17:43:51.301Z,6.05
2023-04-17T17:46:19.661Z,5.78
2023-04-17T17:48:46.742Z,6.72
2023-04-17T17:51:13.850Z,6.35
2023-04-17T17:53:41.451Z,6.70
2023-04-17T17:56:08.461Z,6.88
2023-04-17T17:58:35.732Z,6.82
2023-04-17T18:01:02.866Z,6.70
2023-04-17T18:03:30.481Z,6.95
2023-04-17T18:05:57.929Z,6.32
2023-04-17T18:08:24.837Z,5.60
2023-04-17T18:10:52.029Z,6.90
2023-04-17T18:13:19.202Z,6.25
2023-04-17T18:15:46.272Z,6.38
2023-04-17T18:18:13.255Z,6.43
2023-04-17T18:20:40.493Z,6.50
2023-04-17T18:23:07.527Z,5.90
2023-04-17T18:25:39.138Z,6.22
2023-04-17T18:28:06.803Z,5.88
2023-04-17T18:30:33.735Z,6.22
2023-04-17T18:33:00.972Z,6.75
2023-04-17T18:35:27.930Z,6.18
2023-04-17T18:37:54.905Z,5.80
2023-04-17T18:40:21.846Z,5.50
2023-04-17T18:42:48.845Z,5.95
2023-04-17T18:45:16.114Z,6.43
2023-04-17T18:47:43.493Z,6.03
2023-04-17T18:50:11.492Z,6.53
2023-04-17T18:52:41.026Z,5.93
2023-04-17T18:55:10.173Z,5.72
2023-04-17T18:57:37.753Z,6.80
2023-04-17T19:00:05.596Z,5.45
2023-04-17T19:02:32.836Z,6.00
2023-04-17T19:04:59.942Z,5.32
2023-04-17T19:07:27.084Z,6.03
2023-04-17T19:09:54.130Z,6.47
2023-04-17T19:12:21.064Z,6.00
2023-04-17T19:14:48.067Z,4.93
2023-04-17T19:17:16.109Z,5.75
2023-04-17T19:19:43.010Z,5.55
2023-04-17T19:22:09.956Z,5.50
2023-04-17T19:24:37.116Z,6.18
2023-04-17T19:27:04.220Z,6.57
2023-04-17T19:29:31.441Z,6.25
2023-04-17T19:31:58.478Z,5.35
2023-04-17T19:34:25.699Z,6.75
2023-04-17T19:36:52.837Z,5.97
2023-04-17T19:39:19.996Z,5.30
2023-04-17T19:41:50.991Z,5.53
2023-04-17T19:44:18.498Z,4.82
2023-04-17T19:46:45.550Z,5.15
2023-04-17T19:49:12.934Z,6.65
2023-04-17T19:51:40.054Z,4.40
2023-04-17T19:56:42.485Z,4.35
2023-04-17T19:59:12.678Z,4.47
2023-04-17T20:01:42.155Z,4.35
2023-04-17T20:04:10.955Z,4.22
2023-04-17T20:06:39.754Z,4.22
2023-04-17T20:09:07.048Z,4.07
2023-04-17T20:11:34.697Z,4.28
2023-04-17T20:14:01.705Z,4.07
2023-04-17T20:16:28.704Z,4.00
2023-04-17T20:18:56.809Z,3.40
2023-04-17T20:21:24.195Z,4.15
2023-04-17T20:23:51.648Z,4.30
2023-04-17T20:26:18.605Z,3.50
2023-04-17T20:28:46.012Z,3.58
2023-04-17T20:31:12.994Z,4.10
2023-04-17T20:33:40.130Z,3.50
2023-04-17T20:36:07.176Z,4.15
2023-04-17T20:38:34.280Z,4.15
2023-04-17T20:41:01.332Z,3.38
2023-04-17T20:43:28.239Z,3.60
2023-04-17T20:45:55.239Z,3.75
2023-04-17T20:48:22.439Z,3.47
2023-04-17T20:50:49.546Z,3.78
2023-04-17T20:53:16.638Z,3.63
2023-04-17T20:55:43.686Z,3.72
2023-04-17T20:58:10.813Z,3.22
2023-04-17T21:00:44.523Z,3.53
2023-04-17T21:03:14.574Z,3.28
2023-04-17T21:05:41.633Z,3.08
2023-04-17T21:08:08.557Z,4.03
2023-04-17T21:10:35.520Z,4.15
2023-04-17T21:13:02.499Z,3.33
2023-04-17T21:15:29.446Z,3.40
2023-04-17T21:17:56.396Z,3.55
2023-04-17T21:20:23.655Z,3.95
2023-04-17T21:22:50.551Z,4.05
2023-04-17T21:25:17.571Z,3.65
2023-04-17T21:27:44.667Z,3.83
2023-04-17T21:30:11.814Z,4.10
2023-04-17T21:32:39.411Z,3.70
2023-04-17T21:35:07.002Z,3.53
2023-04-17T21:37:33.925Z,4.20
2023-04-17T21:40:00.850Z,3.67
2023-04-17T21:42:27.765Z,3.33
2023-04-17T21:44:54.708Z,3.55
2023-04-17T21:47:21.701Z,3.55
2023-04-17T21:49:49.178Z,3.22
2023-04-17T21:52:17.205Z,3.08
2023-04-17T21:54:44.143Z,3.90
2023-04-17T21:57:11.052Z,2.95
2023-04-17T21:59:38.050Z,3.83
2023-04-17T22:02:05.014Z,4.53
2023-04-17T22:04:32.146Z,3.78
2023-04-17T22:06:59.251Z,5.15
2023-04-17T22:09:28.456Z,4.25
2023-04-17T22:11:56.668Z,4.10
2023-04-17T22:14:23.662Z,4.00
2023-04-17T22:16:50.662Z,3.80
2023-04-17T22:19:17.625Z,5.05
2023-04-17T22:21:44.641Z,4.70
2023-04-17T22:24:11.889Z,4.55
2023-04-17T22:26:39.019Z,3.88
2023-04-17T22:29:06.138Z,3.97
2023-04-17T22:31:33.125Z,3.80
2023-04-17T22:34:00.140Z,3.83
2023-04-17T22:36:27.585Z,4.10
2023-04-17T22:38:54.820Z,4.40
2023-04-17T22:41:21.799Z,3.85
2023-04-17T22:43:52.036Z,3.70
2023-04-17T22:46:19.060Z,4.25
2023-04-17T22:48:46.273Z,4.50
2023-04-17T22:51:13.543Z,4.65
2023-04-17T22:53:40.559Z,4.80
2023-04-17T22:56:12.431Z,5.07
2023-04-17T22:58:39.428Z,4.85
2023-04-17T23:01:06.676Z,4.53
2023-04-17T23:03:35.192Z,5.20
2023-04-17T23:06:03.151Z,4.70
2023-04-17T23:08:30.628Z,5.35
2023-04-17T23:11:01.753Z,4.68
2023-04-17T23:13:31.850Z,4.28
2023-04-17T23:15:58.950Z,5.13
2023-04-17T23:18:26.237Z,5.35
2023-04-17T23:20:53.201Z,4.55
2023-04-17T23:23:20.280Z,4.75
2023-04-17T23:25:47.363Z,4.65
2023-04-17T23:28:14.722Z,3.88
2023-04-17T23:30:41.721Z,4.43
2023-04-17T23:33:09.761Z,5.20
2023-04-17T23:35:36.747Z,4.95
2023-04-17T23:38:03.769Z,4.13
2023-04-17T23:40:32.850Z,4.35
2023-04-17T23:42:59.828Z,4.93
2023-04-17T23:45:26.777Z,4.93
2023-04-17T23:47:53.892Z,4.57
2023-04-17T23:50:20.971Z,4.85
2023-04-17T23:52:47.973Z,5.45
2023-04-17T23:55:15.057Z,4.80
2023-04-17T23:57:41.978Z,5.30
